createdAt,value
2022-10-26T00:01:08.476Z,100843.16
2022-10-26T00:03:37.027Z,100848.75
2022-10-26T00:06:09.862Z,100848.31
2022-10-26T00:08:38.112Z,100850.59
2022-10-26T00:11:06.363Z,100850.59
2022-10-26T00:13:34.380Z,100837.50
2022-10-26T00:16:02.555Z,100849.31
2022-10-26T00:18:31.563Z,100846.38
2022-10-26T00:21:04.797Z,100852.19
2022-10-26T00:23:32.909Z,100843.81
2022-10-26T00:26:01.014Z,100851.03
2022-10-26T00:28:28.780Z,100849.25
2022-10-26T00:31:01.938Z,100853.13
2022-10-26T00:33:31.229Z,100858.66
2022-10-26T00:35:59.536Z,100865.19
2022-10-26T00:38:27.471Z,100861.28
2022-10-26T00:40:55.106Z,100855.09
2022-10-26T00:43:39.524Z,100865.91
2022-10-26T00:46:10.649Z,100860.75
2022-10-26T00:48:43.475Z,100858.53
2022-10-26T00:51:15.164Z,100856.88
2022-10-26T00:53:42.893Z,100848.13
2022-10-26T00:56:10.601Z,100858.25
2022-10-26T00:58:38.713Z,100854.97
2022-10-26T01:01:07.126Z,100854.22
2022-10-26T01:03:37.381Z,100858.16
2022-10-26T01:06:07.622Z,100852.69
2022-10-26T01:08:35.419Z,100849.00
2022-10-26T01:11:03.104Z,100865.63
2022-10-26T01:13:32.657Z,100855.22
2022-10-26T01:16:09.728Z,100851.63
2022-10-26T01:18:44.295Z,100847.97
2022-10-26T01:21:51.536Z,100857.22
2022-10-26T01:24:40.272Z,100851.53
2022-10-26T01:27:26.343Z,100843.03
2022-10-26T01:30:20.418Z,100843.56
2022-10-26T01:32:56.954Z,100837.81
2022-10-26T01:35:29.215Z,100839.31
2022-10-26T01:38:00.672Z,100835.75
2022-10-26T01:40:32.400Z,100830.03
2022-10-26T01:43:03.696Z,100831.75
2022-10-26T01:45:34.983Z,100824.88
2022-10-26T01:48:04.086Z,100827.41
2022-10-26T01:50:32.426Z,100832.94
2022-10-26T01:53:00.142Z,100827.22
2022-10-26T01:55:45.016Z,100824.72
2022-10-26T01:58:38.246Z,100818.31
2022-10-26T02:01:17.370Z,100824.31
2022-10-26T02:03:47.660Z,100817.78
2022-10-26T02:06:19.218Z,100818.97
2022-10-26T02:08:57.537Z,100815.22
2022-10-26T02:11:34.209Z,100808.69
2022-10-26T02:14:09.273Z,100812.59
2022-10-26T02:16:44.484Z,100793.75
2022-10-26T02:19:21.668Z,100798.03
2022-10-26T02:21:53.283Z,100800.03
2022-10-26T02:24:21.467Z,100800.91
2022-10-26T02:26:50.224Z,100793.31
2022-10-26T02:29:19.684Z,100796.81
2022-10-26T02:31:50.066Z,100798.09
2022-10-26T02:34:20.596Z,100792.78
2022-10-26T02:36:49.400Z,100784.16
2022-10-26T02:39:18.028Z,100782.09
2022-10-26T02:41:47.238Z,100781.03
2022-10-26T02:44:18.303Z,100777.34
2022-10-26T02:46:46.292Z,100768.03
2022-10-26T02:49:15.401Z,100771.38
2022-10-26T02:54:26.471Z,100761.47
2022-10-26T02:56:57.803Z,100749.94
2022-10-26T02:59:28.086Z,100753.69
2022-10-26T03:01:55.999Z,100748.72
2022-10-26T03:04:30.780Z,100755.97
2022-10-26T03:06:58.443Z,100747.97
2022-10-26T03:09:26.240Z,100752.09
2022-10-26T03:11:54.095Z,100746.59
2022-10-26T03:14:22.223Z,100741.88
2022-10-26T03:19:17.760Z,100733.47
2022-10-26T03:21:46.709Z,100738.03
2022-10-26T03:24:14.455Z,100728.97
2022-10-26T03:26:41.977Z,100737.03
2022-10-26T03:29:10.088Z,100733.34
2022-10-26T03:31:37.604Z,100723.06
2022-10-26T03:34:05.374Z,100723.91
2022-10-26T03:36:33.124Z,100727.56
2022-10-26T03:39:02.593Z,100716.09
2022-10-26T03:41:30.280Z,100713.19
2022-10-26T03:43:58.878Z,100705.41
2022-10-26T03:46:26.559Z,100701.72
2022-10-26T03:48:54.330Z,100694.31
2022-10-26T03:51:22.250Z,100700.50
2022-10-26T03:53:49.786Z,100697.19
2022-10-26T03:56:18.962Z,100692.69
2022-10-26T03:58:46.685Z,100691.47
2022-10-26T04:01:14.376Z,100684.03
2022-10-26T04:03:42.266Z,100686.94
2022-10-26T04:06:10.049Z,100677.47
2022-10-26T04:08:37.576Z,100684.47
2022-10-26T04:11:05.454Z,100685.09
2022-10-26T04:13:34.659Z,100674.00
2022-10-26T04:16:02.355Z,100680.13
2022-10-26T04:18:29.870Z,100668.03
2022-10-26T04:20:57.636Z,100673.78
2022-10-26T04:25:52.856Z,100661.84
2022-10-26T04:28:20.445Z,100659.97
2022-10-26T04:30:50.027Z,100657.91
2022-10-26T04:33:17.979Z,100652.19
2022-10-26T04:35:46.422Z,100655.25
2022-10-26T04:38:14.056Z,100651.56
2022-10-26T04:40:41.946Z,100651.97
2022-10-26T04:43:09.491Z,100645.81
2022-10-26T04:45:37.038Z,100647.66
2022-10-26T04:48:08.148Z,100647.84
2022-10-26T04:50:36.340Z,100642.09
2022-10-26T04:53:04.592Z,100647.22
2022-10-26T04:55:32.522Z,100648.28
2022-10-26T04:58:01.534Z,100636.75
2022-10-26T05:00:30.447Z,100643.34
2022-10-26T05:03:00.759Z,100644.78
2022-10-26T05:05:30.019Z,100645.19
2022-10-26T05:07:57.807Z,100647.66
2022-10-26T05:10:26.030Z,100642.09
2022-10-26T05:12:53.912Z,100648.25
2022-10-26T05:15:21.695Z,100646.63
2022-10-26T05:17:52.822Z,100644.97
2022-10-26T05:20:20.518Z,100640.47
2022-10-26T05:22:54.886Z,100640.47
2022-10-26T05:25:22.375Z,100642.91
2022-10-26T05:27:50.095Z,100638.38
2022-10-26T05:30:17.960Z,100639.63
2022-10-26T05:32:45.473Z,100632.41
2022-10-26T05:35:13.106Z,100637.56
2022-10-26T05:37:40.855Z,100633.66
2022-10-26T05:40:11.950Z,100641.50
2022-10-26T05:42:39.670Z,100643.53
2022-10-26T05:45:08.069Z,100642.50
2022-10-26T05:47:39.156Z,100648.66
2022-10-26T05:50:07.449Z,100645.78
2022-10-26T05:52:39.795Z,100641.69
2022-10-26T05:55:08.579Z,100648.28
2022-10-26T05:57:38.506Z,100652.38
2022-10-26T06:00:09.458Z,100643.72
2022-10-26T06:02:42.714Z,100648.06
2022-10-26T06:05:12.292Z,100650.34
2022-10-26T06:07:40.724Z,100654.84
2022-10-26T06:10:11.116Z,100655.03
2022-10-26T06:12:40.968Z,100660.19
2022-10-26T06:15:13.338Z,100660.78
2022-10-26T06:17:49.049Z,100659.34
2022-10-26T06:20:30.936Z,100653.75
2022-10-26T06:23:10.882Z,100651.06
2022-10-26T06:25:45.919Z,100653.94
2022-10-26T06:28:23.605Z,100647.38
2022-10-26T06:30:51.455Z,100656.22
2022-10-26T06:33:28.858Z,100653.16
2022-10-26T06:36:04.326Z,100658.28
2022-10-26T06:38:34.675Z,100657.88
2022-10-26T06:41:02.792Z,100655.19
2022-10-26T06:43:34.022Z,100650.22
2022-10-26T06:46:08.243Z,100648.13
2022-10-26T06:48:44.650Z,100657.56
2022-10-26T06:51:15.296Z,100661.25
2022-10-26T06:53:48.473Z,100660.03
2022-10-26T06:56:16.893Z,100661.84
2022-10-26T06:58:45.917Z,100668.25
2022-10-26T07:01:13.991Z,100663.06
2022-10-26T07:03:41.579Z,100668.78
2022-10-26T07:06:10.274Z,100673.31
2022-10-26T07:08:38.140Z,100675.56
2022-10-26T07:11:05.844Z,100678.59
2022-10-26T07:13:33.683Z,100681.06
2022-10-26T07:16:02.627Z,100676.09
2022-10-26T07:18:30.148Z,100679.22
2022-10-26T07:20:59.753Z,100679.22
2022-10-26T07:23:27.304Z,100682.25
2022-10-26T07:25:54.931Z,100681.00
2022-10-26T07:28:22.677Z,100682.41
2022-10-26T07:30:55.282Z,100677.41
2022-10-26T07:33:25.710Z,100678.59
2022-10-26T07:35:54.169Z,100681.88
2022-10-26T07:38:21.864Z,100683.44
2022-10-26T07:40:50.631Z,100686.13
2022-10-26T07:43:18.367Z,100684.22
2022-10-26T07:45:46.073Z,100679.63
2022-10-26T07:48:14.161Z,100684.06
2022-10-26T07:50:43.433Z,100682.63
2022-10-26T07:53:11.161Z,100671.28
2022-10-26T07:55:39.068Z,100670.72
2022-10-26T07:58:07.285Z,100659.97
2022-10-26T08:00:35.085Z,100651.72
2022-10-26T08:03:03.032Z,100651.19
2022-10-26T08:08:05.797Z,100655.63
2022-10-26T08:10:33.533Z,100654.19
2022-10-26T08:13:01.241Z,100647.19
2022-10-26T08:15:29.126Z,100645.91
2022-10-26T08:17:56.763Z,100646.69
2022-10-26T08:20:24.652Z,100640.78
2022-10-26T08:22:53.003Z,100625.03
2022-10-26T08:25:22.930Z,100628.94
2022-10-26T08:27:50.746Z,100621.03
2022-10-26T08:30:18.995Z,100618.84
2022-10-26T08:32:47.080Z,100615.16
2022-10-26T08:35:21.290Z,100606.78
2022-10-26T08:37:48.853Z,100613.34
2022-10-26T08:40:17.896Z,100608.91
2022-10-26T08:42:50.692Z,100610.44
2022-10-26T08:45:30.542Z,100606.47
2022-10-26T08:48:03.303Z,100591.25
2022-10-26T08:50:33.539Z,100587.53
2022-10-26T08:53:04.783Z,100589.50
2022-10-26T08:55:38.529Z,100574.88
2022-10-26T08:58:11.945Z,100571.53
2022-10-26T09:00:41.339Z,100565.84
2022-10-26T09:03:14.635Z,100560.72
2022-10-26T09:05:50.733Z,100562.91
2022-10-26T09:08:26.159Z,100559.25
2022-10-26T09:11:01.246Z,100553.84
2022-10-26T09:13:37.505Z,100571.59
2022-10-26T09:16:09.075Z,100572.56
2022-10-26T09:21:28.053Z,100597.59
2022-10-26T09:24:01.800Z,100601.34
2022-10-26T09:26:35.079Z,100598.56
2022-10-26T09:29:07.433Z,100594.09
2022-10-26T09:31:43.203Z,100591.63
2022-10-26T09:34:19.619Z,100591.16
2022-10-26T09:36:47.196Z,100592.00
2022-10-26T09:39:21.393Z,100595.69
2022-10-26T09:41:52.201Z,100601.28
2022-10-26T09:44:27.415Z,100599.97
2022-10-26T09:46:58.224Z,100610.41
2022-10-26T09:49:33.156Z,100601.25
2022-10-26T09:52:00.838Z,100614.28
2022-10-26T09:54:28.528Z,100609.31
2022-10-26T09:56:59.180Z,100609.03
2022-10-26T09:59:28.858Z,100616.00
2022-10-26T10:01:56.509Z,100612.50
2022-10-26T10:04:24.657Z,100608.34
2022-10-26T10:06:53.509Z,100617.41
2022-10-26T10:09:22.768Z,100616.44
2022-10-26T10:11:56.458Z,100627.22
2022-10-26T10:14:25.725Z,100645.91
2022-10-26T10:16:57.166Z,100641.22
2022-10-26T10:19:26.739Z,100639.75
2022-10-26T10:21:57.835Z,100631.28
2022-10-26T10:24:27.734Z,100644.84
2022-10-26T10:27:03.077Z,100639.50
2022-10-26T10:29:32.401Z,100648.19
2022-10-26T10:32:02.823Z,100658.19
2022-10-26T10:34:31.712Z,100648.44
2022-10-26T10:37:00.863Z,100656.34
2022-10-26T10:39:39.676Z,100656.97
2022-10-26T10:42:15.916Z,100655.00
2022-10-26T10:44:44.191Z,100668.69
2022-10-26T10:47:20.815Z,100656.00
2022-10-26T10:49:52.792Z,100646.28
2022-10-26T10:52:25.610Z,100658.78
2022-10-26T10:55:02.380Z,100648.44
2022-10-26T10:57:33.771Z,100641.03
2022-10-26T11:00:05.451Z,100652.44
2022-10-26T11:02:53.783Z,100644.25
2022-10-26T11:05:27.437Z,100652.56
2022-10-26T11:07:58.927Z,100652.00
2022-10-26T11:10:30.383Z,100661.13
2022-10-26T11:13:00.643Z,100645.63
2022-10-26T11:15:31.718Z,100656.47
2022-10-26T11:18:05.087Z,100656.56
2022-10-26T11:20:34.289Z,100650.72
2022-10-26T11:23:06.011Z,100659.88
2022-10-26T11:25:37.093Z,100659.88
2022-10-26T11:28:11.656Z,100642.88
2022-10-26T11:30:44.299Z,100638.34
2022-10-26T11:33:17.120Z,100637.00
2022-10-26T11:35:47.510Z,100650.31
2022-10-26T11:38:23.950Z,100647.59
2022-10-26T11:41:04.136Z,100645.69
2022-10-26T11:43:35.858Z,100641.94
2022-10-26T11:46:06.760Z,100646.03
2022-10-26T11:48:39.532Z,100640.06
2022-10-26T11:51:16.098Z,100634.63
2022-10-26T11:53:50.373Z,100645.53
2022-10-26T11:56:25.170Z,100653.16
2022-10-26T11:58:53.371Z,100661.84
2022-10-26T12:01:21.337Z,100652.59
2022-10-26T12:03:54.464Z,100655.88
2022-10-26T12:06:26.608Z,100663.72
2022-10-26T12:09:02.370Z,100665.59
2022-10-26T12:11:37.373Z,100669.97
2022-10-26T12:14:13.166Z,100677.63
2022-10-26T12:16:47.580Z,100678.16
2022-10-26T12:19:21.516Z,100685.22
2022-10-26T12:21:51.196Z,100687.91
2022-10-26T12:24:30.787Z,100687.34
2022-10-26T12:26:59.338Z,100681.69
2022-10-26T12:29:38.123Z,100693.06
2022-10-26T12:32:51.175Z,100699.88
2022-10-26T12:35:50.406Z,100703.69
2022-10-26T12:38:57.580Z,100711.88
2022-10-26T12:41:28.953Z,100708.59
2022-10-26T12:44:06.141Z,100702.88
2022-10-26T12:46:40.994Z,100708.56
2022-10-26T12:49:59.355Z,100711.31
2022-10-26T12:52:35.011Z,100714.56
2022-10-26T12:55:35.800Z,100725.47
2022-10-26T12:58:20.108Z,100730.88
2022-10-26T13:00:54.372Z,100741.00
2022-10-26T13:03:29.193Z,100725.13
2022-10-26T13:06:08.584Z,100731.91
2022-10-26T13:08:43.161Z,100740.34
2022-10-26T13:11:17.880Z,100739.47
2022-10-26T13:13:46.161Z,100738.47
2022-10-26T13:16:15.600Z,100740.56
2022-10-26T13:18:44.088Z,100740.66
2022-10-26T13:21:13.690Z,100738.78
2022-10-26T13:23:44.478Z,100740.66
2022-10-26T13:26:14.242Z,100735.53
2022-10-26T13:28:50.522Z,100729.41
2022-10-26T13:31:57.529Z,100737.22
2022-10-26T13:34:27.459Z,100743.03
2022-10-26T13:37:11.436Z,100736.16
2022-10-26T13:39:43.560Z,100740.50
2022-10-26T13:42:15.828Z,100742.84
2022-10-26T13:44:47.053Z,100747.50
2022-10-26T13:47:20.655Z,100752.63
2022-10-26T13:49:48.972Z,100743.31
2022-10-26T13:52:18.608Z,100749.63
2022-10-26T13:54:51.373Z,100757.19
2022-10-26T13:57:22.489Z,100767.00
2022-10-26T13:59:50.150Z,100765.34
2022-10-26T14:02:24.441Z,100769.13
2022-10-26T14:05:01.925Z,100755.66
2022-10-26T14:07:35.781Z,100762.75
2022-10-26T14:10:05.597Z,100753.88
2022-10-26T14:12:33.447Z,100757.44
2022-10-26T14:15:04.696Z,100764.91
2022-10-26T14:17:32.539Z,100766.22
2022-10-26T14:20:00.176Z,100767.47
2022-10-26T14:22:30.059Z,100773.38
2022-10-26T14:24:59.356Z,100764.53
2022-10-26T14:27:32.636Z,100760.41
2022-10-26T14:32:48.752Z,100780.75
2022-10-26T14:35:16.790Z,100782.31
2022-10-26T14:37:46.879Z,100780.91
2022-10-26T14:40:17.503Z,100789.09
2022-10-26T14:42:50.526Z,100778.88
2022-10-26T14:45:29.853Z,100795.13
2022-10-26T14:48:05.978Z,100796.97
2022-10-26T14:50:36.250Z,100798.09
2022-10-26T14:53:06.351Z,100802.84
2022-10-26T14:55:45.317Z,100802.47
2022-10-26T14:58:19.290Z,100805.19
2022-10-26T15:00:47.707Z,100807.09
2022-10-26T15:03:17.477Z,100810.09
2022-10-26T15:05:45.260Z,100804.13
2022-10-26T15:08:52.631Z,100812.53
2022-10-26T15:11:25.124Z,100820.69
2022-10-26T15:14:12.834Z,100822.00
2022-10-26T15:17:15.171Z,100830.41
2022-10-26T15:20:53.079Z,100823.22
2022-10-26T15:23:28.806Z,100838.81
2022-10-26T15:26:11.878Z,100842.06
2022-10-26T15:28:43.515Z,100839.84
2022-10-26T15:31:33.398Z,100829.69
2022-10-26T15:34:14.605Z,100841.84
2022-10-26T15:36:44.404Z,100842.63
2022-10-26T15:39:17.227Z,100849.63
2022-10-26T15:42:59.244Z,100853.72
2022-10-26T15:45:34.800Z,100863.09
2022-10-26T15:48:19.734Z,100860.75
2022-10-26T15:50:47.315Z,100866.88
2022-10-26T15:53:31.161Z,100858.38
2022-10-26T15:57:09.466Z,100870.84
2022-10-26T15:59:42.369Z,100872.03
2022-10-26T16:02:14.358Z,100866.25
2022-10-26T16:04:59.132Z,100877.44
2022-10-26T16:08:34.380Z,100873.50
2022-10-26T16:11:14.370Z,100881.72
2022-10-26T16:13:47.326Z,100885.81
2022-10-26T16:16:28.979Z,100888.84
2022-10-26T16:19:25.433Z,100894.97
2022-10-26T16:21:56.680Z,100901.03
2022-10-26T16:24:36.599Z,100915.31
2022-10-26T16:27:23.004Z,100910.31
2022-10-26T16:29:55.416Z,100916.34
2022-10-26T16:32:32.244Z,100933.22
2022-10-26T16:38:45.195Z,100945.22
2022-10-26T16:41:49.856Z,100947.78
2022-10-26T16:44:29.892Z,100959.00
2022-10-26T16:47:06.028Z,100969.41
2022-10-26T16:49:43.412Z,100974.34
2022-10-26T16:52:29.328Z,100977.16
2022-10-26T16:55:04.622Z,100984.53
2022-10-26T16:57:32.863Z,100983.66
2022-10-26T17:00:07.651Z,100988.63
2022-10-26T17:02:38.392Z,100994.84
2022-10-26T17:05:09.456Z,101000.72
2022-10-26T17:07:37.705Z,101010.03
2022-10-26T17:10:16.037Z,101015.28
2022-10-26T17:12:45.638Z,101017.84
2022-10-26T17:15:29.067Z,101015.50
2022-10-26T17:18:01.732Z,101024.88
2022-10-26T17:20:34.441Z,101033.91
2022-10-26T17:23:27.094Z,101038.63
2022-10-26T17:26:19.195Z,101045.44
2022-10-26T17:29:20.658Z,101044.09
2022-10-26T17:31:48.561Z,101045.63
2022-10-26T17:34:18.348Z,101054.78
2022-10-26T17:37:05.466Z,101074.09
2022-10-26T17:39:42.062Z,101080.88
2022-10-26T17:42:12.221Z,101093.75
2022-10-26T17:44:45.343Z,101100.13
2022-10-26T17:47:15.224Z,101106.16
2022-10-26T17:50:04.216Z,101124.41
2022-10-26T17:52:33.308Z,101124.78
2022-10-26T17:55:13.227Z,101126.81
2022-10-26T17:57:42.488Z,101139.19
2022-10-26T18:00:33.326Z,101136.81
2022-10-26T18:03:10.019Z,101156.47
2022-10-26T18:05:50.074Z,101158.13
2022-10-26T18:08:20.391Z,101173.06
2022-10-26T18:11:00.205Z,101166.56
2022-10-26T18:13:38.449Z,101170.53
2022-10-26T18:16:12.703Z,101182.47
2022-10-26T18:19:01.669Z,101191.78
2022-10-26T18:21:48.121Z,101197.84
2022-10-26T18:24:31.399Z,101206.16
2022-10-26T18:26:59.381Z,101210.69
2022-10-26T18:29:28.726Z,101208.69
2022-10-26T18:32:08.755Z,101202.91
2022-10-26T18:34:54.977Z,101212.78
2022-10-26T18:37:22.823Z,101221.28
2022-10-26T18:39:59.636Z,101226.94
2022-10-26T18:42:29.359Z,101232.34
2022-10-26T18:45:04.057Z,101241.34
2022-10-26T18:51:27.560Z,101231.50
2022-10-26T18:53:57.824Z,101216.25
2022-10-26T18:56:27.621Z,101219.84
2022-10-26T18:58:59.355Z,101217.16
2022-10-26T19:01:43.745Z,101209.69
2022-10-26T19:04:16.887Z,101213.75
2022-10-26T19:07:02.178Z,101216.09
2022-10-26T19:13:11.835Z,101212.06
2022-10-26T19:15:48.406Z,101216.88
2022-10-26T19:18:19.891Z,101218.69
2022-10-26T19:21:00.129Z,101224.53
2022-10-26T19:23:34.483Z,101228.06
2022-10-26T19:26:15.956Z,101228.53
2022-10-26T19:28:57.739Z,101227.88
2022-10-26T19:31:27.505Z,101234.16
2022-10-26T19:33:58.236Z,101235.38
2022-10-26T19:36:31.603Z,101234.22
2022-10-26T19:39:11.665Z,101232.94
2022-10-26T19:41:48.291Z,101238.06
2022-10-26T19:44:31.138Z,101241.75
2022-10-26T19:58:10.408Z,101266.78
2022-10-26T20:00:38.375Z,101265.78
2022-10-26T20:03:14.264Z,101270.97
2022-10-26T20:05:42.831Z,101281.59
2022-10-26T20:08:11.539Z,101271.47
2022-10-26T20:10:45.563Z,101267.59
2022-10-26T20:13:17.995Z,101264.84
2022-10-26T20:16:09.295Z,101262.72
2022-10-26T20:19:40.660Z,101277.72
2022-10-26T20:22:13.120Z,101265.41
2022-10-26T20:24:41.087Z,101263.56
2022-10-26T20:27:08.862Z,101275.13
2022-10-26T20:29:43.175Z,101270.75
2022-10-26T20:32:15.092Z,101272.66
2022-10-26T20:34:54.856Z,101277.06
2022-10-26T20:37:28.000Z,101276.63
2022-10-26T20:40:04.150Z,101268.94
2022-10-26T20:42:37.555Z,101269.25
2022-10-26T20:45:11.799Z,101273.44
2022-10-26T20:47:41.885Z,101270.03
2022-10-26T20:54:12.488Z,101292.03
2022-10-26T20:56:42.340Z,101293.28
2022-10-26T21:02:11.562Z,101286.84
2022-10-26T21:04:41.192Z,101294.56
2022-10-26T21:07:11.276Z,101291.31
2022-10-26T21:09:41.500Z,101292.41
2022-10-26T21:12:11.701Z,101284.06
2022-10-26T21:14:41.367Z,101293.47
2022-10-26T21:17:23.465Z,101298.19
2022-10-26T21:19:59.995Z,101295.66
2022-10-26T21:22:36.595Z,101303.41
2022-10-26T21:25:13.355Z,101300.47
2022-10-26T21:27:44.196Z,101309.09
2022-10-26T21:30:21.015Z,101318.91
2022-10-26T21:32:52.802Z,101320.25
2022-10-26T21:35:25.568Z,101317.13
2022-10-26T21:37:55.392Z,101314.00
2022-10-26T21:40:24.894Z,101326.53
2022-10-26T21:43:05.217Z,101326.69
2022-10-26T21:45:41.705Z,101326.53
2022-10-26T21:48:13.519Z,101335.19
2022-10-26T21:50:42.525Z,101340.94
2022-10-26T21:53:11.563Z,101333.13
2022-10-26T21:56:01.831Z,101341.06
2022-10-26T21:59:43.310Z,101333.13
2022-10-26T22:02:11.362Z,101333.97
2022-10-26T22:04:58.706Z,101338.38
2022-10-26T22:07:35.583Z,101343.53
2022-10-26T22:10:10.627Z,101346.50
2022-10-26T22:12:40.565Z,101346.00
2022-10-26T22:15:10.864Z,101355.78
2022-10-26T22:17:39.773Z,101355.97
2022-10-26T22:20:12.617Z,101352.03
2022-10-26T22:22:40.419Z,101351.25
2022-10-26T22:25:10.683Z,101358.94
2022-10-26T22:27:38.535Z,101360.16
2022-10-26T22:34:44.442Z,101364.75
2022-10-26T22:37:22.894Z,101363.31
2022-10-26T22:39:59.608Z,101360.63
2022-10-26T22:42:29.148Z,101352.59
2022-10-26T22:45:11.951Z,101349.72
2022-10-26T22:47:40.281Z,101356.53
2022-10-26T22:50:14.056Z,101356.13
2022-10-26T22:52:45.223Z,101355.47
2022-10-26T22:55:28.114Z,101356.69
2022-10-26T22:58:01.290Z,101348.66
2022-10-26T23:00:29.910Z,101358.16
2022-10-26T23:03:10.079Z,101358.81
2022-10-26T23:05:52.691Z,101361.84
2022-10-26T23:08:24.446Z,101354.47
2022-10-26T23:10:53.402Z,101355.22
2022-10-26T23:13:26.519Z,101355.50
2022-10-26T23:16:06.575Z,101367.50
2022-10-26T23:18:37.719Z,101364.84
2022-10-26T23:21:15.787Z,101374.13
2022-10-26T23:23:47.646Z,101365.63
2022-10-26T23:26:28.119Z,101366.88
2022-10-26T23:29:01.884Z,101369.31
2022-10-26T23:31:31.768Z,101371.84
2022-10-26T23:34:09.876Z,101376.63
2022-10-26T23:36:39.785Z,101381.13
2022-10-26T23:39:10.605Z,101379.69
2022-10-26T23:41:53.447Z,101387.19
2022-10-26T23:44:30.150Z,101389.25
2022-10-26T23:46:58.997Z,101386.78
2022-10-26T23:49:27.211Z,101392.16
2022-10-26T23:56:49.615Z,101394.47
2022-10-26T23:59:22.262Z,101393.00
